Time;durP1;ratioP1;P1;durP2;ratioP2;P2;SDS_P1;SDS_P2;PMS_P1;PMS_P2;Temp;Humidity;BMP_temperature;BMP_pressure;BME280_temperature;BME280_humidity;BME280_pressure;Samples;Min_cycle;Max_cycle;Signal;HPM_P1;HPM_P2
2023/01/05 00:01:17;;;;;;;16.90;9.63;;;;;;;7.38;77.38;102237.66;5050826;28;20482;-81
2023/01/05 00:03:42;;;;;;;15.10;8.23;;;;;;;7.53;77.53;102275.25;5050585;28;20033;-80
2023/01/05 00:06:13;;;;;;;11.93;6.43;;;;;;;7.50;77.15;102274.44;5050838;28;20029;-81
2023/01/05 00:08:38;;;;;;;10.52;7.85;;;;;;;7.52;76.69;102276.13;5034252;28;20025;-81
2023/01/05 00:22:30;;;;;;;8.13;5.38;;;;;;;7.42;76.20;102249.59;5036281;28;20529;-80
2023/01/05 00:25:01;;;;;;;7.22;4.70;;;;;;;7.38;76.39;102253.09;5050582;28;20025;-82
2023/01/05 00:27:27;;;;;;;8.05;3.72;;;;;;;7.35;76.46;102245.38;5051623;28;20049;-81
2023/01/05 00:29:53;;;;;;;6.07;3.90;;;;;;;7.32;76.29;102237.69;5016985;28;20075;-81
2023/01/05 00:32:18;;;;;;;8.10;5.70;;;;;;;7.23;76.14;102208.59;5050014;28;20025;-81
2023/01/05 00:34:44;;;;;;;16.75;5.13;;;;;;;7.07;75.94;102183.00;5033627;28;20418;-81
2023/01/05 00:37:09;;;;;;;8.30;4.82;;;;;;;7.33;75.95;102229.09;5033603;28;20414;-81
2023/01/05 00:39:35;;;;;;;8.07;5.63;;;;;;;7.37;75.31;102235.91;5033312;28;20490;-81
2023/01/05 00:42:00;;;;;;;10.88;5.57;;;;;;;7.37;75.77;102242.78;5033448;28;20040;-81
2023/01/05 00:44:26;;;;;;;6.40;4.32;;;;;;;7.23;75.67;102217.19;5033288;28;20025;-81
2023/01/05 00:46:51;;;;;;;9.45;3.85;;;;;;;7.32;75.86;102231.69;5033069;28;20033;-81
2023/01/05 00:49:16;;;;;;;6.80;3.78;;;;;;;7.37;75.76;102235.06;5049729;28;20040;-81
2023/01/05 00:51:42;;;;;;;5.72;3.70;;;;;;;7.21;75.72;102207.78;5032661;28;20047;-81
2023/01/05 00:54:07;;;;;;;5.03;3.40;;;;;;;7.40;74.91;102238.47;5016889;28;20029;-80
2023/01/05 00:56:33;;;;;;;6.57;3.83;;;;;;;7.29;75.42;102230.00;5033359;28;20474;-81
2023/01/05 00:58:58;;;;;;;6.78;4.00;;;;;;;7.35;75.55;102236.81;5033265;28;20025;-80
2023/01/05 01:01:24;;;;;;;10.68;3.83;;;;;;;7.27;75.77;102234.28;5033032;28;20040;-81
2023/01/05 01:03:49;;;;;;;4.57;3.53;;;;;;;7.11;76.13;102235.31;5033171;28;20479;-81
2023/01/05 01:06:15;;;;;;;5.60;4.07;;;;;;;7.11;75.80;102222.47;5016738;28;20029;-81
2023/01/05 01:08:40;;;;;;;5.57;3.72;;;;;;;7.03;75.83;102211.38;5016586;28;20068;-82
2023/01/05 01:11:07;;;;;;;5.50;3.63;;;;;;;6.94;75.63;102196.00;5032882;28;20029;-80
2023/01/05 01:13:32;;;;;;;5.25;4.28;;;;;;;7.04;75.90;102211.34;5033039;28;20020;-81
2023/01/05 01:16:04;;;;;;;8.45;5.05;;;;;;;7.05;75.81;102207.06;5032816;28;20068;-82
2023/01/05 01:18:30;;;;;;;8.60;4.70;;;;;;;6.97;75.78;102189.09;5032830;28;20033;-81
2023/01/05 01:20:55;;;;;;;18.77;4.97;;;;;;;6.89;75.92;102171.19;5050759;28;20036;-80
2023/01/05 01:23:22;;;;;;;7.10;4.47;;;;;;;6.94;75.33;102173.72;5032722;28;20045;-81
2023/01/05 01:25:47;;;;;;;9.05;5.45;;;;;;;6.89;75.61;102155.75;5049195;28;20025;-81
2023/01/05 01:28:13;;;;;;;6.45;3.75;;;;;;;6.98;75.34;102165.13;5032970;28;20036;-81
2023/01/05 01:30:38;;;;;;;6.28;4.65;;;;;;;6.94;75.57;102157.41;5049548;28;20032;-81
2023/01/05 01:33:04;;;;;;;9.57;3.97;;;;;;;6.66;75.40;102110.50;5032729;28;20033;-81
2023/01/05 01:35:29;;;;;;;5.45;3.38;;;;;;;6.85;75.62;102153.22;5050239;28;20029;-81
2023/01/05 01:37:55;;;;;;;7.35;4.80;;;;;;;6.79;75.73;102130.13;5016191;28;20033;-80
2023/01/05 01:40:20;;;;;;;7.50;3.92;;;;;;;6.79;75.79;102117.28;5048986;28;20029;-80
2023/01/05 01:42:46;;;;;;;12.02;4.60;;;;;;;6.81;75.71;102116.38;5032483;28;20091;-80
2023/01/05 01:45:21;;;;;;;6.85;3.72;;;;;;;6.61;76.32;102080.56;5032471;28;20029;-80
2023/01/05 01:47:48;;;;;;;4.78;3.45;;;;;;;6.73;76.00;102100.16;5033496;28;20025;-81
2023/01/05 01:50:19;;;;;;;6.47;5.03;;;;;;;6.76;75.94;102091.56;5049268;28;20037;-83
2023/01/05 01:52:45;;;;;;;4.13;3.45;;;;;;;6.70;75.75;102087.34;5033058;28;20021;-81
2023/01/05 01:55:10;;;;;;;12.27;4.03;;;;;;;6.46;75.93;102056.69;5016058;28;20455;-81
2023/01/05 01:57:36;;;;;;;7.38;4.60;;;;;;;6.48;75.73;102062.69;5032310;28;20087;-81
2023/01/05 02:00:02;;;;;;;9.30;5.60;;;;;;;6.52;76.01;102090.09;5032098;28;20024;-81
2023/01/05 02:02:28;;;;;;;6.28;4.35;;;;;;;6.45;76.18;102096.97;5035194;28;20067;-81
2023/01/05 02:04:55;;;;;;;11.40;5.75;;;;;;;6.49;75.85;102092.66;5036424;28;20402;-80
2023/01/05 02:07:22;;;;;;;9.57;4.18;;;;;;;6.49;76.35;102095.22;5036573;28;20036;-80
2023/01/05 02:09:47;;;;;;;9.68;5.43;;;;;;;6.44;76.05;102079.84;5036366;28;20053;-80
2023/01/05 02:12:26;;;;;;;6.82;3.67;;;;;;;6.45;76.32;102075.56;5036112;28;20129;-80
2023/01/05 02:15:17;;;;;;;11.27;4.95;;;;;;;6.38;76.08;102072.19;5052780;28;20025;-81
2023/01/05 02:17:59;;;;;;;6.88;4.05;;;;;;;6.29;76.34;102070.56;5039072;28;20021;-81
2023/01/05 02:21:20;;;;;;;7.25;4.47;;;;;;;6.21;76.78;102067.22;5035883;28;20134;-80
2023/01/05 02:24:10;;;;;;;13.68;5.38;;;;;;;6.17;77.07;102064.66;5048521;28;20049;-82
2023/01/05 02:27:00;;;;;;;7.05;5.65;;;;;;;6.06;76.67;102057.03;5052634;28;20029;-80
2023/01/05 02:29:47;;;;;;;13.30;6.05;;;;;;;6.05;77.32;102057.91;5054150;28;20024;-80
2023/01/05 02:32:18;;;;;;;13.05;6.75;;;;;;;5.76;76.76;102017.81;5053755;28;20082;-80
2023/01/05 02:34:58;;;;;;;7.90;3.38;;;;;;;5.91;76.97;102042.59;5036396;28;20548;-80
2023/01/05 02:37:34;;;;;;;9.05;6.18;;;;;;;5.87;77.04;102048.56;5052343;28;20021;-80
2023/01/05 02:40:07;;;;;;;6.40;5.30;;;;;;;5.73;77.30;102035.81;5036191;28;20095;-81
2023/01/05 02:42:33;;;;;;;8.57;5.43;;;;;;;5.54;77.84;102015.41;5035570;28;20029;-81
2023/01/05 02:45:03;;;;;;;13.85;6.60;;;;;;;5.73;77.67;102042.69;5019194;28;20044;-80
2023/01/05 02:47:29;;;;;;;12.35;6.93;;;;;;;5.67;77.72;102047.84;5035707;28;20028;-81
2023/01/05 02:50:00;;;;;;;9.32;5.95;;;;;;;5.71;77.82;102063.25;5053235;28;20021;-81
2023/01/05 02:52:26;;;;;;;8.48;5.50;;;;;;;5.52;77.40;102042.81;5019273;28;20025;-81
2023/01/05 02:54:57;;;;;;;12.10;8.60;;;;;;;5.68;77.33;102070.09;5035137;28;20453;-81
2023/01/05 02:57:45;;;;;;;11.73;7.07;;;;;;;5.47;76.58;102030.00;5035829;28;20033;-80
2023/01/05 03:00:11;;;;;;;19.30;4.88;;;;;;;5.57;76.50;102057.31;5037975;28;20029;-81
2023/01/05 03:02:36;;;;;;;5.40;3.83;;;;;;;5.52;76.73;102051.38;5018890;28;20106;-80
2023/01/05 03:05:13;;;;;;;11.10;5.72;;;;;;;5.47;77.04;102046.25;5035348;28;20487;-80
2023/01/05 03:07:39;;;;;;;7.47;4.35;;;;;;;5.36;77.55;102034.31;5035629;28;20099;-80
2023/01/05 03:15:34;;;;;;;7.80;4.50;;;;;;;5.18;77.58;101997.63;5037620;28;20040;-81
2023/01/05 03:18:03;;;;;;;14.45;6.88;;;;;;;5.04;78.50;101983.16;5035342;28;20029;-80
2023/01/05 03:20:30;;;;;;;6.88;6.18;;;;;;;5.27;78.21;102008.72;5018451;28;20048;-82
2023/01/05 03:37:37;;;;;;;9.27;6.15;;;;;;;4.94;78.74;101999.47;5051286;28;20052;-82
2023/01/05 03:40:05;;;;;;;10.02;7.30;;;;;;;4.97;78.59;101999.44;5034374;28;20029;-80
2023/01/05 03:42:31;;;;;;;11.00;5.85;;;;;;;4.93;79.00;102005.44;5034755;28;20025;-80
2023/01/05 03:44:57;;;;;;;12.30;6.50;;;;;;;4.91;79.28;101992.59;5018002;28;20032;-82
2023/01/05 03:47:22;;;;;;;9.07;5.93;;;;;;;4.90;78.71;101996.03;5034535;28;20029;-80
2023/01/05 03:49:48;;;;;;;9.23;4.45;;;;;;;4.74;78.65;101977.31;5051130;28;20500;-80
2023/01/05 03:52:13;;;;;;;7.90;5.15;;;;;;;4.81;78.30;101993.50;5034057;28;20032;-80
2023/01/05 03:54:39;;;;;;;19.77;6.55;;;;;;;4.65;78.22;101961.94;5050744;28;20521;-81
2023/01/05 03:57:04;;;;;;;8.32;6.60;;;;;;;4.75;78.23;101999.50;5051014;28;20033;-80
2023/01/05 03:59:30;;;;;;;10.48;6.13;;;;;;;4.69;78.91;101979.00;5050952;28;20395;-80
2023/01/05 04:01:55;;;;;;;9.15;4.80;;;;;;;4.72;78.47;101984.16;5050636;28;20059;-80
2023/01/05 04:04:21;;;;;;;6.85;4.72;;;;;;;4.68;78.55;101974.75;5050760;28;20029;-80
2023/01/05 04:06:46;;;;;;;8.23;6.40;;;;;;;4.49;78.82;101942.34;5050592;28;20399;-80
2023/01/05 04:09:12;;;;;;;13.65;6.05;;;;;;;4.63;78.68;101944.88;5050195;28;20536;-81
2023/01/05 04:11:37;;;;;;;12.32;6.00;;;;;;;4.76;78.82;101960.19;5017608;28;20025;-80
2023/01/05 04:14:03;;;;;;;11.77;8.55;;;;;;;4.47;78.50;101908.19;5050350;28;20036;-80
2023/01/05 04:16:28;;;;;;;14.48;7.20;;;;;;;4.83;79.40;101946.50;5051863;28;20501;-80
2023/01/05 04:18:54;;;;;;;8.10;6.30;;;;;;;4.89;78.95;101943.03;5033876;28;20513;-80
2023/01/05 04:21:19;;;;;;;7.60;6.25;;;;;;;4.87;78.28;101940.50;5051336;28;20040;-80
2023/01/05 04:23:45;;;;;;;23.85;7.93;;;;;;;4.78;78.20;101916.59;5033519;28;20114;-80
2023/01/05 04:26:10;;;;;;;8.55;4.43;;;;;;;4.78;77.88;101922.59;5050474;28;20056;-79
2023/01/05 04:28:36;;;;;;;10.32;5.35;;;;;;;4.83;77.80;101923.44;5050326;28;20029;-80
2023/01/05 04:31:01;;;;;;;11.95;6.53;;;;;;;4.81;78.74;101930.25;5049293;28;20033;-79
2023/01/05 04:33:27;;;;;;;8.65;6.47;;;;;;;4.64;78.52;101911.53;5029064;28;20033;-81
2023/01/05 04:35:52;;;;;;;17.42;7.40;;;;;;;4.76;78.22;101932.00;5030025;28;20108;-80
2023/01/05 04:38:18;;;;;;;15.05;8.43;;;;;;;4.78;77.76;101940.53;5046474;28;20030;-80
2023/01/05 04:40:50;;;;;;;12.23;7.82;;;;;;;4.79;78.20;101942.22;5013792;28;20057;-80
2023/01/05 04:43:16;;;;;;;10.40;6.30;;;;;;;4.71;78.44;101938.00;5031513;28;20425;-80
2023/01/05 04:45:41;;;;;;;9.95;6.97;;;;;;;4.64;78.73;101926.94;5033370;28;20025;-79
2023/01/05 04:48:07;;;;;;;17.95;8.18;;;;;;;4.69;78.74;101929.47;5033118;28;20037;-81
2023/01/05 04:50:32;;;;;;;11.20;7.75;;;;;;;4.70;78.22;101897.84;5016755;28;20448;-80
2023/01/05 04:52:58;;;;;;;12.18;6.03;;;;;;;4.40;77.70;101860.38;5049044;28;20068;-80
2023/01/05 04:55:23;;;;;;;18.25;8.18;;;;;;;4.57;78.91;101899.59;5050609;28;20037;-79
2023/01/05 04:57:49;;;;;;;12.00;8.43;;;;;;;4.52;78.85;101891.94;5033038;28;20151;-80
2023/01/05 05:00:14;;;;;;;10.73;7.72;;;;;;;4.22;78.94;101867.25;5033404;28;20040;-82
2023/01/05 05:02:40;;;;;;;15.25;8.77;;;;;;;4.40;78.97;101896.25;5048145;28;20662;-79
2023/01/05 05:05:05;;;;;;;11.27;8.73;;;;;;;4.40;79.46;101881.72;5065052;28;20028;-81
2023/01/05 05:07:31;;;;;;;21.90;14.05;;;;;;;4.21;79.55;101863.00;5045437;28;20546;-80
2023/01/05 05:09:56;;;;;;;21.25;11.63;;;;;;;4.42;78.79;101900.50;5048399;28;20033;-82
2023/01/05 05:12:22;;;;;;;17.73;11.18;;;;;;;4.30;79.64;101911.63;5050838;28;20972;-84
2023/01/05 05:14:47;;;;;;;16.80;8.30;;;;;;;4.32;79.78;101915.03;5032943;28;20029;-81
2023/01/05 05:17:14;;;;;;;19.25;10.63;;;;;;;4.24;80.13;101901.44;5032582;28;20039;-82
2023/01/05 05:19:39;;;;;;;28.05;11.43;;;;;;;4.22;79.81;101898.00;5030396;28;20055;-78
2023/01/05 05:22:05;;;;;;;12.93;8.27;;;;;;;4.26;79.57;101899.72;5049144;28;20029;-83
2023/01/05 05:24:30;;;;;;;25.55;11.52;;;;;;;4.32;79.55;101898.81;5048951;28;20029;-87
2023/01/05 05:26:58;;;;;;;14.45;10.48;;;;;;;4.32;79.69;101894.53;5031174;28;20052;-83
2023/01/05 05:29:24;;;;;;;42.03;13.02;;;;;;;4.23;79.92;101884.34;5048030;28;20056;-80
2023/01/05 05:31:50;;;;;;;20.40;13.63;;;;;;;4.23;79.57;101886.91;5047626;28;20025;-82
2023/01/05 05:34:15;;;;;;;41.30;11.75;;;;;;;4.24;79.36;101895.44;5047960;28;20040;-83
2023/01/05 05:36:41;;;;;;;21.63;12.35;;;;;;;4.33;79.55;101885.19;5050286;28;20029;-79
2023/01/05 05:39:07;;;;;;;20.70;13.57;;;;;;;4.23;79.48;101868.97;5069497;28;20107;-77
2023/01/05 05:41:32;;;;;;;26.95;17.30;;;;;;;4.28;79.58;101876.63;5053038;28;20032;-78
2023/01/05 05:43:59;;;;;;;30.17;13.68;;;;;;;4.17;78.93;101871.56;5053117;28;20466;-77
2023/01/05 05:46:28;;;;;;;18.55;14.32;;;;;;;4.20;78.93;101863.84;5051963;28;20061;-78
2023/01/05 05:48:54;;;;;;;19.58;11.38;;;;;;;4.19;79.91;101851.91;5037442;28;20068;-81
2023/01/05 05:51:20;;;;;;;18.15;9.63;;;;;;;4.03;80.15;101819.50;5053186;28;20024;-84
2023/01/05 05:53:45;;;;;;;18.50;9.75;;;;;;;4.17;80.03;101842.53;5052638;28;20095;-92
2023/01/05 05:56:11;;;;;;;18.17;11.90;;;;;;;4.06;79.42;101824.63;5041744;28;20120;-88
2023/01/05 05:58:36;;;;;;;16.48;11.13;;;;;;;4.24;79.68;101863.00;5068878;28;20510;-89
2023/01/05 06:01:02;;;;;;;18.92;11.70;;;;;;;4.16;79.76;101835.69;5048339;28;20029;-86
2023/01/05 06:03:27;;;;;;;22.42;14.07;;;;;;;4.24;79.11;101855.31;5033584;28;20060;-87
2023/01/05 06:05:53;;;;;;;30.80;17.00;;;;;;;4.21;79.21;101841.66;5034897;28;20119;-89
2023/01/05 06:08:18;;;;;;;22.67;13.30;;;;;;;4.15;79.76;101829.72;5035297;28;20063;-82
2023/01/05 06:10:44;;;;;;;20.88;11.13;;;;;;;4.18;80.55;101839.94;5050196;28;20498;-84
2023/01/05 06:13:09;;;;;;;26.75;10.82;;;;;;;4.02;81.54;101817.78;5032945;28;20033;-85
2023/01/05 06:15:35;;;;;;;22.30;10.88;;;;;;;4.07;81.85;101831.47;5050449;28;20055;-80
2023/01/05 06:18:00;;;;;;;12.70;7.55;;;;;;;4.06;82.01;101829.75;5050790;28;20033;-86
2023/01/05 06:20:26;;;;;;;31.52;9.00;;;;;;;3.99;81.93;101820.38;5049986;28;20454;-87
2023/01/05 06:22:51;;;;;;;7.43;5.40;;;;;;;3.98;82.30;101827.22;5035296;28;20047;-84
2023/01/05 06:25:17;;;;;;;9.38;6.32;;;;;;;4.02;82.23;101828.03;5053756;28;20029;-84
2023/01/05 06:27:42;;;;;;;11.18;7.35;;;;;;;3.98;82.19;101816.97;5049465;28;20037;-84
2023/01/05 06:30:08;;;;;;;9.32;6.20;;;;;;;4.05;81.65;101822.09;5044568;28;20029;-84
2023/01/05 06:32:34;;;;;;;13.65;9.13;;;;;;;4.06;83.50;101828.91;5039352;28;20355;-92
2023/01/05 06:34:59;;;;;;;14.30;8.63;;;;;;;4.07;81.86;101816.09;5019565;28;20060;-81
2023/01/05 06:37:25;;;;;;;10.60;7.40;;;;;;;4.51;86.73;101823.59;5051870;28;20029;-91
2023/01/05 06:39:50;;;;;;;10.35;6.60;;;;;;;4.55;82.89;101827.00;5018712;28;20064;-88
2023/01/05 06:42:16;;;;;;;9.48;7.47;;;;;;;4.34;79.38;101819.41;5034554;28;20025;-87
2023/01/05 06:44:41;;;;;;;11.10;7.72;;;;;;;4.50;81.96;101828.72;5050416;28;20056;-85
2023/01/05 06:47:07;;;;;;;13.10;7.25;;;;;;;4.55;83.37;101837.25;5035890;28;20033;-90
2023/01/05 06:49:32;;;;;;;13.18;8.00;;;;;;;4.47;82.32;101832.16;4996774;28;20147;-83
2023/01/05 06:51:58;;;;;;;11.80;5.95;;;;;;;4.36;80.64;101827.94;5025572;28;20033;-83
2023/01/05 06:54:23;;;;;;;8.52;5.55;;;;;;;4.24;81.17;101816.03;5039882;28;20040;-85
2023/01/05 06:56:49;;;;;;;11.35;7.68;;;;;;;4.23;80.93;101806.66;5040773;28;20040;-86
2023/01/05 06:59:14;;;;;;;17.55;7.47;;;;;;;4.37;81.19;101820.25;5007911;28;20025;-89
2023/01/05 07:01:40;;;;;;;13.32;8.15;;;;;;;4.35;80.08;101810.88;5017877;28;20047;-81
2023/01/05 07:04:05;;;;;;;14.98;8.65;;;;;;;3.88;79.73;101751.28;5032591;28;20099;-79
2023/01/05 07:06:31;;;;;;;14.05;8.98;;;;;;;4.08;80.36;101783.66;5051681;28;20036;-81
2023/01/05 07:08:56;;;;;;;10.23;5.78;;;;;;;4.08;80.97;101789.63;5046681;28;20052;-83
2023/01/05 07:11:22;;;;;;;12.52;6.07;;;;;;;3.90;81.34;101766.63;5033722;28;20422;-87
2023/01/05 07:13:48;;;;;;;13.38;7.88;;;;;;;4.17;81.88;101786.19;5027291;28;20041;-86
2023/01/05 07:16:14;;;;;;;11.95;6.80;;;;;;;3.90;81.90;101771.75;5034956;28;20029;-83
2023/01/05 07:18:39;;;;;;;11.50;5.80;;;;;;;3.97;82.86;101788.81;5048205;28;20059;-82
2023/01/05 07:21:05;;;;;;;10.48;5.93;;;;;;;4.00;83.43;101765.75;5050016;28;20032;-79
2023/01/05 07:23:30;;;;;;;7.88;6.43;;;;;;;4.10;83.64;101775.09;5034131;28;20546;-81
2023/01/05 07:25:59;;;;;;;13.80;9.20;;;;;;;4.10;83.36;101759.72;5036925;28;20406;-79
2023/01/05 07:28:25;;;;;;;14.65;7.60;;;;;;;4.22;82.90;101767.34;5033773;28;20021;-80
2023/01/05 07:30:51;;;;;;;10.93;7.50;;;;;;;4.13;82.61;101761.41;5046786;28;20029;-80
2023/01/05 07:33:17;;;;;;;11.80;8.63;;;;;;;4.31;83.05;101766.47;5030636;28;20569;-79
2023/01/05 07:35:42;;;;;;;9.88;8.27;;;;;;;4.47;82.48;101762.13;5049982;28;20033;-81
2023/01/05 07:38:08;;;;;;;21.35;12.45;;;;;;;4.47;82.35;101752.72;5034364;28;20029;-88
2023/01/05 07:40:34;;;;;;;13.52;9.27;;;;;;;4.37;82.24;101719.47;5034039;28;20069;-83
2023/01/05 07:43:00;;;;;;;12.52;8.02;;;;;;;4.68;81.86;101758.56;5021536;28;20033;-86
2023/01/05 07:45:25;;;;;;;26.70;11.38;;;;;;;4.82;81.24;101767.88;5033431;28;20029;-87
2023/01/05 07:47:51;;;;;;;20.75;14.13;;;;;;;4.82;81.33;101762.75;5018057;28;20052;-90
2023/01/05 07:50:16;;;;;;;40.30;21.23;;;;;;;4.89;79.84;101748.16;4995188;28;20503;-90
2023/01/05 07:52:42;;;;;;;68.85;27.88;;;;;;;4.89;79.40;101743.88;5016131;28;20090;-83
2023/01/05 07:55:08;;;;;;;33.85;20.33;;;;;;;5.02;77.76;101754.06;5049898;28;20418;-85
2023/01/05 07:57:33;;;;;;;78.95;25.10;;;;;;;4.94;79.00;101750.72;5049488;28;20506;-86
2023/01/05 07:59:58;;;;;;;41.25;22.90;;;;;;;4.84;78.02;101707.19;5029831;28;20021;-86
2023/01/05 08:02:26;;;;;;;51.58;20.48;;;;;;;5.55;80.76;101747.59;5042100;28;20055;-88
2023/01/05 08:04:52;;;;;;;41.90;21.50;;;;;;;5.47;79.35;101722.00;5017229;28;20495;-87
2023/01/05 08:07:17;;;;;;;26.58;17.73;;;;;;;6.89;72.70;101743.31;5032002;28;20028;-81
2023/01/05 08:12:27;;;;;;;27.50;12.65;;;;;;;6.21;72.31;101728.00;5041754;28;20048;-83
2023/01/05 08:14:53;;;;;;;18.95;12.40;;;;;;;6.41;77.77;101740.59;5012775;28;20037;-84
2023/01/05 08:17:18;;;;;;;13.70;10.38;;;;;;;6.18;73.53;101742.59;5047214;28;20025;-84
2023/01/05 08:19:44;;;;;;;22.40;10.45;;;;;;;5.83;74.73;101699.34;5028040;28;20041;-86
2023/01/05 08:22:10;;;;;;;13.07;9.18;;;;;;;5.94;75.85;101731.75;5048036;28;21713;-90
2023/01/05 08:24:35;;;;;;;12.93;7.88;;;;;;;5.87;77.08;101726.69;5033695;28;20045;-85
2023/01/05 08:27:01;;;;;;;8.75;7.28;;;;;;;5.92;77.93;101724.97;5046743;28;20118;-87
2023/01/05 08:29:26;;;;;;;21.83;6.78;;;;;;;6.52;83.96;101728.41;5015977;28;20037;-84
2023/01/05 08:31:52;;;;;;;12.02;7.47;;;;;;;6.32;77.53;101721.00;5026770;28;20087;-82
2023/01/05 08:34:17;;;;;;;18.60;9.77;;;;;;;6.26;76.61;101705.66;5021250;28;20060;-86
2023/01/05 08:36:43;;;;;;;13.77;8.38;;;;;;;6.50;78.93;101693.34;5015583;28;20033;-84
2023/01/05 08:39:09;;;;;;;10.35;8.48;;;;;;;6.51;76.03;101695.88;5046030;28;20033;-86
2023/01/05 08:41:36;;;;;;;14.60;7.95;;;;;;;6.54;76.27;101664.13;5015558;28;20033;-89
2023/01/05 08:44:07;;;;;;;9.50;5.72;;;;;;;6.75;76.53;101668.06;5048043;28;20048;-79
2023/01/05 08:46:34;;;;;;;14.88;8.40;;;;;;;6.95;78.09;101665.16;5032036;28;20025;-80
2023/01/05 08:49:01;;;;;;;10.15;7.43;;;;;;;7.30;77.45;101672.25;5031138;28;20052;-80
2023/01/05 08:51:26;;;;;;;11.10;8.45;;;;;;;7.21;74.58;101667.28;5031653;28;20578;-85
2023/01/05 08:53:52;;;;;;;13.85;7.60;;;;;;;7.15;73.79;101663.91;5022240;28;20116;-80
2023/01/05 08:56:18;;;;;;;10.95;6.78;;;;;;;7.10;74.12;101667.47;5020906;28;20029;-81
2023/01/05 08:58:43;;;;;;;12.43;7.25;;;;;;;6.91;74.27;101638.66;5064656;28;20477;-87
2023/01/05 09:01:13;;;;;;;14.50;8.13;;;;;;;7.09;74.81;101656.34;5048598;28;20047;-85
2023/01/05 09:03:39;;;;;;;18.02;9.20;;;;;;;7.18;74.70;101666.47;5030550;28;20029;-83
2023/01/05 09:06:05;;;;;;;14.25;8.00;;;;;;;7.35;82.06;101634.38;5032253;28;20037;-81
2023/01/05 09:08:31;;;;;;;18.02;8.38;;;;;;;7.50;76.18;101656.44;5036282;28;20029;-85
2023/01/05 09:11:14;;;;;;;11.60;7.68;;;;;;;7.58;74.71;101664.84;5016594;28;20047;-80
2023/01/05 09:13:43;;;;;;;13.98;8.65;;;;;;;7.75;73.72;101649.88;5029616;28;20052;-85
2023/01/05 09:16:10;;;;;;;13.13;8.43;;;;;;;7.73;73.36;101642.19;5011694;28;20124;-82
2023/01/05 09:18:37;;;;;;;13.48;10.15;;;;;;;7.90;73.47;101664.19;5041872;28;20040;-81
2023/01/05 09:21:03;;;;;;;10.70;6.03;;;;;;;8.01;73.86;101668.22;5031333;28;20124;-87
2023/01/05 09:23:28;;;;;;;13.90;8.93;;;;;;;8.00;74.23;101650.22;5046402;28;20029;-84
2023/01/05 09:25:54;;;;;;;14.27;6.65;;;;;;;8.09;73.23;101634.56;5046931;28;20044;-78
2023/01/05 09:28:19;;;;;;;10.13;7.75;;;;;;;8.13;72.98;101610.41;5064594;28;20524;-78
2023/01/05 09:30:45;;;;;;;14.10;7.88;;;;;;;8.44;72.62;101635.47;5047728;28;20075;-81
2023/01/05 09:33:10;;;;;;;15.95;10.02;;;;;;;8.46;72.60;101636.31;5047880;28;20033;-81
2023/01/05 09:35:36;;;;;;;21.92;11.75;;;;;;;8.50;72.47;101622.47;5046753;28;20117;-94
2023/01/05 09:38:01;;;;;;;21.70;11.90;;;;;;;8.56;71.40;101620.59;5045816;28;20025;-78
2023/01/05 09:40:26;;;;;;;17.65;13.35;;;;;;;8.66;72.47;101636.69;5042455;28;20561;-84
2023/01/05 09:42:52;;;;;;;26.40;15.25;;;;;;;8.66;71.67;101628.09;5025044;28;20044;-88
2023/01/05 09:45:23;;;;;;;24.95;15.05;;;;;;;8.60;72.40;101616.19;5031388;28;20063;-87
2023/01/05 09:47:49;;;;;;;33.63;17.08;;;;;;;8.74;72.45;101611.50;5032582;28;20040;-91
2023/01/05 09:50:19;;;;;;;34.38;14.30;;;;;;;8.78;72.56;101602.81;4995614;28;20049;-92
2023/01/05 09:52:44;;;;;;;25.17;12.45;;;;;;;8.74;72.09;101572.81;5048301;28;20103;-83
2023/01/05 09:55:17;;;;;;;18.80;11.80;;;;;;;8.91;71.72;101586.13;5047396;28;20037;-90
2023/01/05 09:58:25;;;;;;;20.45;13.18;;;;;;;9.01;72.34;101591.03;5014211;28;20053;-87
2023/01/05 10:01:05;;;;;;;29.25;15.63;;;;;;;9.01;72.20;101565.22;5029115;28;20033;-87
2023/01/05 10:03:31;;;;;;;23.90;15.10;;;;;;;9.08;71.75;101556.44;5041535;28;20441;-87
2023/01/05 10:05:56;;;;;;;23.25;13.88;;;;;;;8.99;71.89;101530.88;5028631;28;20478;-87
2023/01/05 10:08:34;;;;;;;23.73;14.88;;;;;;;9.23;71.55;101555.97;5037251;28;20108;-83
2023/01/05 10:14:14;;;;;;;21.80;13.00;;;;;;;9.39;71.05;101567.56;5020971;28;20109;-81
2023/01/05 10:16:42;;;;;;;21.75;14.20;;;;;;;9.44;70.94;101565.72;5031785;28;20033;-80
2023/01/05 10:19:15;;;;;;;20.00;12.43;;;;;;;9.71;73.73;101547.69;5046692;28;20103;-84
2023/01/05 10:21:49;;;;;;;22.77;11.60;;;;;;;10.28;72.25;101580.38;5016531;28;20036;-82
2023/01/05 10:24:23;;;;;;;24.80;13.68;;;;;;;10.50;69.82;101576.19;5040190;28;20021;-87
2023/01/05 10:27:05;;;;;;;14.63;8.63;;;;;;;10.75;69.14;101559.84;5030876;28;20076;-80
2023/01/05 10:29:37;;;;;;;23.33;10.43;;;;;;;10.68;68.11;101553.19;5047970;28;20021;-79
2023/01/05 10:32:33;;;;;;;21.25;10.68;;;;;;;10.29;68.10;101504.50;5035352;28;20036;-77
2023/01/05 10:35:01;;;;;;;23.27;8.82;;;;;;;10.40;68.17;101530.84;5048820;28;20174;-83
2023/01/05 10:37:34;;;;;;;16.23;8.43;;;;;;;10.41;68.62;101537.69;5032401;28;20031;-78
2023/01/05 10:40:02;;;;;;;;;;;;;;;10.41;68.23;101529.94;5051324;28;20043;-82
2023/01/05 10:42:44;;;;;;;14.32;7.80;;;;;;;10.24;68.87;101506.41;5049548;28;19913;-84
2023/01/05 10:45:17;;;;;;;16.98;6.78;;;;;;;10.31;68.70;101492.34;5049666;28;20119;-91
2023/01/05 10:47:43;;;;;;;10.75;5.13;;;;;;;10.38;68.61;101513.69;5029476;28;20124;-87
2023/01/05 10:50:26;;;;;;;15.10;8.40;;;;;;;10.17;69.08;101497.97;5013134;28;20102;-85
2023/01/05 10:52:52;;;;;;;15.93;8.13;;;;;;;10.36;69.18;101520.66;5052556;28;20029;-90
2023/01/05 10:55:18;;;;;;;19.48;7.93;;;;;;;10.38;68.56;101508.50;5031904;28;20044;-88
2023/01/05 10:57:44;;;;;;;13.35;7.95;;;;;;;10.52;68.15;101517.50;5035803;28;20025;-92
2023/01/05 11:00:18;;;;;;;18.75;7.80;;;;;;;10.74;68.26;101503.81;5034166;28;20085;-85
2023/01/05 11:03:01;;;;;;;15.55;7.32;;;;;;;10.80;67.82;101507.00;5013376;28;20026;-86
2023/01/05 11:05:33;;;;;;;17.13;8.60;;;;;;;10.94;67.00;101491.00;5015198;28;20096;-85
2023/01/05 11:08:12;;;;;;;21.10;9.90;;;;;;;11.10;67.03;101494.69;5023558;28;20455;-90
2023/01/05 11:10:46;;;;;;;21.52;8.90;;;;;;;11.25;66.69;101492.44;5016292;28;20052;-79
2023/01/05 11:13:15;;;;;;;25.30;11.60;;;;;;;11.36;65.72;101485.09;5048426;28;20064;-80
2023/01/05 11:15:42;;;;;;;18.45;9.80;;;;;;;11.43;64.73;101486.56;5034482;28;20029;-80
2023/01/05 11:18:37;;;;;;;25.92;12.10;;;;;;;11.59;64.64;101469.47;5033184;28;20033;-85
2023/01/05 11:21:22;;;;;;;18.60;10.30;;;;;;;11.87;63.28;101473.59;5034361;28;20040;-80
2023/01/05 11:23:54;;;;;;;18.00;10.40;;;;;;;11.99;62.28;101458.38;5019197;28;20025;-81
2023/01/05 11:26:27;;;;;;;21.13;9.60;;;;;;;12.17;61.75;101459.34;5033800;28;20029;-80
2023/01/05 11:29:08;;;;;;;21.13;10.20;;;;;;;12.29;60.92;101453.66;5050114;28;20036;-84
2023/01/05 11:31:48;;;;;;;23.52;10.05;;;;;;;12.57;60.17;101452.44;5050888;28;20056;-82
2023/01/05 11:34:45;;;;;;;28.95;12.82;;;;;;;12.80;59.13;101444.50;5050674;28;20024;-89
2023/01/05 11:37:11;;;;;;;19.92;11.95;;;;;;;12.98;58.87;101432.44;5013868;28;20397;-85
2023/01/05 11:39:45;;;;;;;26.65;10.95;;;;;;;13.12;58.25;101426.59;5049564;28;20036;-88
2023/01/05 11:42:18;;;;;;;11.50;7.88;;;;;;;13.16;56.54;101417.72;5050689;28;20033;-86
2023/01/05 11:44:47;;;;;;;13.88;9.82;;;;;;;13.16;55.91;101404.72;5045188;28;20128;-84
2023/01/05 11:47:24;;;;;;;19.58;10.13;;;;;;;13.35;55.92;101412.53;5029821;28;20044;-84
2023/01/05 11:50:16;;;;;;;22.55;9.13;;;;;;;13.67;52.47;101416.19;5015439;28;20422;-82
2023/01/05 11:52:44;;;;;;;17.75;9.52;;;;;;;13.80;52.84;101417.25;5048142;28;20048;-82
2023/01/05 11:55:18;;;;;;;11.85;6.72;;;;;;;14.02;50.56;101415.25;5032077;28;20097;-85
2023/01/05 11:57:44;;;;;;;13.55;6.38;;;;;;;14.16;48.98;101413.69;5051697;28;20029;-85
2023/01/05 12:00:27;;;;;;;6.10;3.55;;;;;;;14.22;47.45;101397.78;4997229;28;20063;-81
2023/01/05 12:03:14;;;;;;;8.40;4.15;;;;;;;14.34;47.64;101391.91;5045940;28;20021;-84
2023/01/05 12:05:53;;;;;;;8.00;4.85;;;;;;;14.51;48.27;101389.31;5049947;28;20021;-79
2023/01/05 12:08:48;;;;;;;11.55;5.18;;;;;;;14.59;47.27;101375.88;5045386;28;20037;-86